Flight Track Log - Related Links

Times and Time Zones

All times are in EDT time to prevent confusion due to time zone crossing. See the CTL61 flight status page for this flight to view local times or setup timezone preferences in your user account.

Time Position Orientation Groundspeed Altitude Reporting Facility
EDT Latitude Longitude Course Direction KTS MPH feet Rate Location/Type
Wed 11:56:12 PM 38.4800 -81.7025 329° Northwest 106 122 6,000  Level Indianapolis Center
Wed 11:57:13 PM 38.5133 -81.7303 327° Northwest 132 152 6,000 49 Level Indianapolis Center
Wed 11:58:14 PM 38.5483 -81.7597 327° Northwest 146 168 6,100  Climbing Indianapolis Center
Wed 11:59:00 PM 38.5770 -81.7624 327° Northwest  Level FlightAware Approximate
Wed 11:59:15 PM 38.5822 -81.7894 326° Northwest 147 169 6,000  Level Indianapolis Center
Thu 12:00:00 AM 38.6122 -81.7923 327° Northwest  Level FlightAware Approximate
Thu 12:00:16 AM 38.6147 -81.8203 323° Northwest 146 168 6,000  Level Indianapolis Center
Thu 12:01:17 AM 38.6489 -81.8492 327° Northwest 146 168 5,900 -49 Descending Indianapolis Center
Thu 12:02:18 AM 38.6892 -81.8842 326° Northwest 146 168 5,900 49 Level Indianapolis Center
Thu 12:03:19 AM 38.7236 -81.9119 328° Northwest 144 166 6,000 49 Climbing Indianapolis Center
Thu 12:04:20 AM 38.7575 -81.9400 327° Northwest 144 166 6,000  Level Indianapolis Center
Thu 12:05:21 AM 38.7919 -81.9681 328° Northwest 144 166 6,000  Level Indianapolis Center
Thu 12:06:22 AM 38.8264 -81.9961 328° Northwest 145 167 6,000  Level Indianapolis Center
Thu 12:07:23 AM 38.8614 -82.0253 327° Northwest 148 170 6,000  Level Indianapolis Center
Thu 12:08:24 AM 38.8958 -82.0553 326° Northwest 149 171 6,000  Level Indianapolis Center
Thu 12:09:24 AM 38.9303 -82.0839 327° Northwest 149 171 6,000  Level Indianapolis Center
Thu 12:10:25 AM 38.9656 -82.1125 328° Northwest 149 171 6,000  Level Indianapolis Center
Thu 12:11:26 AM 38.9986 -82.1417 326° Northwest 145 167 6,000  Level Indianapolis Center
Thu 12:12:27 AM 39.0336 -82.1703 328° Northwest 148 170 6,000  Level Indianapolis Center
Thu 12:13:28 AM 39.0689 -82.1975 329° Northwest 148 170 6,000 -246 Level Indianapolis Center
Thu 12:14:29 AM 39.1067 -82.2239 332° Northwest 153 176 5,500 -541 Descending Indianapolis Center
Thu 12:15:30 AM 39.1453 -82.2569 326° Northwest 166 191 4,900 -689 Descending Indianapolis Center
Thu 12:16:31 AM 39.1853 -82.2894 328° Northwest 170 196 4,100 -443 Descending Indianapolis Center
Thu 12:17:32 AM 39.2231 -82.3222 326° Northwest 165 190 4,000 -50 Descending Indianapolis Center
Thu 12:18:32 AM 39.2578 -82.3503 328° Northwest 152 175 4,000  Level Indianapolis Center
Thu 12:19:33 AM 39.2919 -82.3792 327° Northwest 147 169 4,000  Level Indianapolis Center
Thu 12:20:34 AM 39.3269 -82.4078 328° Northwest 148 170 4,000  Level Indianapolis Center
Thu 12:21:35 AM 39.3683 -82.4414 328° Northwest 145 167 4,000  Level Indianapolis Center
Thu 12:22:36 AM 39.4025 -82.4711 326° Northwest 147 169 4,000  Level Indianapolis Center
Thu 12:23:36 AM 39.4375 -82.5003 327° Northwest 148 170 4,000 -45 Level Indianapolis Center
Thu 12:24:48 AM 39.4769 -82.5347 326° Northwest 151 174 3,900  Descending Indianapolis Center
Thu 12:25:38 AM 39.5072 -82.5581 329° Northwest 147 169 4,000 54 Climbing Indianapolis Center
Thu 12:26:39 AM 39.5419 -82.5869 327° Northwest 146 168 4,000  Level Indianapolis Center
Thu 12:27:39 AM 39.5764 -82.6164 327° Northwest 147 169 4,000  Level Indianapolis Center
Thu 12:28:40 AM 39.6111 -82.6453 327° Northwest 147 169 4,000  Level Indianapolis Center
Thu 12:29:41 AM 39.6403 -82.6803 317° Northwest 144 166 4,000  Level Indianapolis Center
Thu 12:30:42 AM 39.6686 -82.7161 316° Northwest 142 163 4,000  Level Indianapolis Center
Thu 12:31:42 AM 39.6969 -82.7531 315° West 142 163 4,000 -46 Level Indianapolis Center
Thu 12:32:53 AM 39.7275 -82.7978 312° West 142 163 3,900 -48 Descending Indianapolis Center
Thu 12:33:48 AM 39.7525 -82.8331 313° West 142 163 3,900  Level Indianapolis Center
Thu 12:34:48 AM 39.7792 -82.8686 314° West 142 163 3,900 51 Level Indianapolis Center
Thu 12:35:45 AM 39.8056 -82.9039 314° West 142 163 4,000 -102 Climbing Indianapolis Center
Thu 12:36:46 AM 39.8328 -82.9417 313° West 142 163 3,700 -298 Descending Indianapolis Center
Thu 12:37:46 AM 39.8736 -82.9611 340° North 151 174 3,400 -347 Descending Indianapolis Center
Thu 12:38:47 AM 39.9131 -82.9850 335° Northwest 154 177 3,000 -344 Descending Indianapolis Center
Thu 12:39:48 AM 39.9517 -83.0067 337° Northwest 153 176 2,700 -149 Descending Indianapolis Center
Thu 12:40:48 AM 39.9892 -83.0264 338° Northwest 148 170 2,700 -198 Level Indianapolis Center
Thu 12:41:49 AM 40.0258 -83.0306 355° North 140 161 2,300 -545 Descending Indianapolis Center
Thu 12:42:49 AM 40.0628 -83.0303 360° North 135 155 1,600 -545 Descending Indianapolis Center
Thu 12:43:50 AM 40.0783 -83.0514 314° West 112 129 1,200 -393 Descending Indianapolis Center

Login

Don't have an account? Register now (free) for customized features, flight alerts, and more!